createdAt,value
2017-07-22T00:00:51.688Z,1004.96
2017-07-22T00:01:51.680Z,1004.94
2017-07-22T00:02:51.665Z,1004.93
2017-07-22T00:03:51.649Z,1004.95
2017-07-22T00:04:51.640Z,1004.89
2017-07-22T00:05:51.628Z,1004.9
2017-07-22T00:06:51.610Z,1004.86
2017-07-22T00:07:51.598Z,1004.84
2017-07-22T00:08:51.579Z,1004.86
2017-07-22T00:09:51.567Z,1004.83
2017-07-22T00:10:51.559Z,1004.83
2017-07-22T00:11:51.546Z,1004.81
2017-07-22T00:12:51.528Z,1004.83
2017-07-22T00:13:51.520Z,1004.83
2017-07-22T00:14:51.502Z,1004.83
2017-07-22T00:15:51.493Z,1004.77
2017-07-22T00:16:51.482Z,1004.84
2017-07-22T00:17:51.519Z,1004.82
2017-07-22T00:18:51.450Z,1004.79
2017-07-22T00:19:51.438Z,1004.79
2017-07-22T00:20:51.457Z,1004.8
2017-07-22T00:21:51.427Z,1004.79
2017-07-22T00:22:51.400Z,1004.77
2017-07-22T00:23:51.389Z,1004.75
2017-07-22T00:24:51.373Z,1004.78
2017-07-22T00:25:51.358Z,1004.75
2017-07-22T00:26:51.352Z,1004.74
2017-07-22T00:27:51.334Z,1004.73
2017-07-22T00:28:51.328Z,1004.7
2017-07-22T00:29:51.308Z,1004.73
2017-07-22T00:30:51.295Z,1004.69
2017-07-22T00:31:51.285Z,1004.68
2017-07-22T00:32:51.270Z,1004.63
2017-07-22T00:33:51.256Z,1004.62
2017-07-22T00:34:51.240Z,1004.62
2017-07-22T00:35:51.236Z,1004.63
2017-07-22T00:36:51.217Z,1004.6
2017-07-22T00:37:51.200Z,1004.66
2017-07-22T00:38:51.192Z,1004.64
2017-07-22T00:39:51.177Z,1004.64
2017-07-22T00:40:51.164Z,1004.64
2017-07-22T00:41:51.152Z,1004.63
2017-07-22T00:42:51.137Z,1004.63
2017-07-22T00:43:51.123Z,1004.62
2017-07-22T00:44:51.110Z,1004.62
2017-07-22T00:45:51.097Z,1004.59
2017-07-22T00:46:51.085Z,1004.59
2017-07-22T00:47:51.069Z,1004.6
2017-07-22T00:48:51.067Z,1004.59
2017-07-22T00:49:51.044Z,1004.58
2017-07-22T00:50:51.033Z,1004.54
2017-07-22T00:51:51.017Z,1004.5
2017-07-22T00:52:51.007Z,1004.52
2017-07-22T00:53:50.992Z,1004.49
2017-07-22T00:54:50.983Z,1004.49
2017-07-22T00:55:50.966Z,1004.49
2017-07-22T00:56:50.954Z,1004.49
2017-07-22T00:57:50.944Z,1004.5
2017-07-22T00:58:50.927Z,1004.44
2017-07-22T00:59:50.913Z,1004.49
2017-07-22T01:00:50.899Z,1004.46
2017-07-22T01:01:50.887Z,1004.44
2017-07-22T01:02:50.876Z,1004.42
2017-07-22T01:03:50.868Z,1004.45
2017-07-22T01:04:50.847Z,1004.39
2017-07-22T01:05:50.834Z,1004.37
2017-07-22T01:06:50.829Z,1004.37
2017-07-22T01:07:50.814Z,1004.34
2017-07-22T01:08:50.797Z,1004.33
2017-07-22T01:09:50.785Z,1004.31
2017-07-22T01:10:50.769Z,1004.33
2017-07-22T01:11:50.764Z,1004.32
2017-07-22T01:12:50.750Z,1004.31
2017-07-22T01:13:50.737Z,1004.37
2017-07-22T01:14:50.717Z,1004.33
2017-07-22T01:15:50.709Z,1004.34
2017-07-22T01:16:50.698Z,1004.34
2017-07-22T01:17:50.679Z,1004.33
2017-07-22T01:18:50.662Z,1004.29
2017-07-22T01:19:50.655Z,1004.26
2017-07-22T01:20:50.636Z,1004.26
2017-07-22T01:21:50.700Z,1004.25
2017-07-22T01:22:50.617Z,1004.24
2017-07-22T01:23:50.600Z,1004.25
2017-07-22T01:24:50.586Z,1004.3
2017-07-22T01:25:50.577Z,1004.28
2017-07-22T01:26:50.562Z,1004.25
2017-07-22T01:27:50.604Z,1004.25
2017-07-22T01:28:50.533Z,1004.25
2017-07-22T01:29:50.620Z,1004.24
2017-07-22T01:30:50.509Z,1004.19
2017-07-22T01:31:50.495Z,1004.16
2017-07-22T01:32:50.483Z,1004.17
2017-07-22T01:33:50.467Z,1004.16
2017-07-22T01:34:50.460Z,1004.14
2017-07-22T01:35:50.494Z,1004.12
2017-07-22T01:36:50.428Z,1004.13
2017-07-22T01:37:50.467Z,1004.09
2017-07-22T01:38:50.406Z,1004.09
2017-07-22T01:39:50.386Z,1004.11
2017-07-22T01:40:50.375Z,1004.07
2017-07-22T01:41:50.365Z,1004.12
2017-07-22T01:42:50.347Z,1004.11
2017-07-22T01:43:50.335Z,1004.09
2017-07-22T01:44:50.325Z,1004.11
2017-07-22T01:45:50.306Z,1004.08
2017-07-22T01:46:50.297Z,1004.1
2017-07-22T01:47:50.284Z,1004.08
2017-07-22T01:48:50.287Z,1004.11
2017-07-22T01:49:50.253Z,1004.1
2017-07-22T01:50:50.241Z,1004.11
2017-07-22T01:51:50.226Z,1004.14
2017-07-22T01:52:50.217Z,1004.13
2017-07-22T01:53:50.206Z,1004.1
2017-07-22T01:54:50.186Z,1004.09
2017-07-22T01:55:50.176Z,1004.11
2017-07-22T01:56:50.167Z,1004.13
2017-07-22T01:57:50.149Z,1004.11
2017-07-22T01:58:50.136Z,1004.06
2017-07-22T01:59:50.119Z,1004.04
2017-07-22T02:00:50.107Z,1004.04
2017-07-22T02:01:50.092Z,1004.06
2017-07-22T02:02:50.087Z,1004.09
2017-07-22T02:03:50.067Z,1004.13
2017-07-22T02:04:50.057Z,1004.1
2017-07-22T02:05:50.039Z,1004.11
2017-07-22T02:06:50.027Z,1004.11
2017-07-22T02:07:50.015Z,1004.08
2017-07-22T02:08:50.000Z,1004.07
2017-07-22T02:09:49.986Z,1004.06
2017-07-22T02:10:49.973Z,1004.03
2017-07-22T02:11:49.976Z,1004.04
2017-07-22T02:12:49.946Z,1003.99
2017-07-22T02:13:49.936Z,1004.02
2017-07-22T02:14:49.919Z,1004.01
2017-07-22T02:15:49.906Z,1004.04
2017-07-22T02:16:49.898Z,1003.96
2017-07-22T02:17:49.880Z,1003.99
2017-07-22T02:18:49.866Z,1003.97
2017-07-22T02:19:49.856Z,1003.99
2017-07-22T02:20:49.843Z,1004
2017-07-22T02:21:49.832Z,1003.97
2017-07-22T02:22:49.812Z,1003.97
2017-07-22T02:23:49.796Z,1003.96
2017-07-22T02:24:49.785Z,1003.98
2017-07-22T02:25:49.776Z,1003.97
2017-07-22T02:26:49.755Z,1004.01
2017-07-22T02:27:49.745Z,1003.96
2017-07-22T02:28:49.732Z,1003.96
2017-07-22T02:29:49.716Z,1004.01
2017-07-22T02:30:49.704Z,1004
2017-07-22T02:31:49.698Z,1004.04
2017-07-22T02:32:49.678Z,1004.05
2017-07-22T02:33:49.665Z,1004.06
2017-07-22T02:34:49.655Z,1004.13
2017-07-22T02:35:49.636Z,1004.17
2017-07-22T02:36:49.627Z,1004.27
2017-07-22T02:37:49.660Z,1004.4
2017-07-22T02:38:49.594Z,1004.82
2017-07-22T02:39:49.584Z,1005.42
2017-07-22T02:40:49.578Z,1005.55
2017-07-22T02:41:49.555Z,1005.38
2017-07-22T02:42:49.541Z,1005.39
2017-07-22T02:43:49.527Z,1005.27
2017-07-22T02:44:49.515Z,1005.37
2017-07-22T02:45:49.500Z,1005.43
2017-07-22T02:46:49.485Z,1005.45
2017-07-22T02:47:49.477Z,1005.49
2017-07-22T02:48:49.456Z,1005.41
2017-07-22T02:49:49.447Z,1005.49
2017-07-22T02:50:49.434Z,1005.51
2017-07-22T02:51:49.414Z,1005.63
2017-07-22T02:52:49.406Z,1005.63
2017-07-22T02:53:49.387Z,1005.67
2017-07-22T02:54:49.375Z,1005.6
2017-07-22T02:55:49.357Z,1005.59
2017-07-22T02:56:49.345Z,1005.62
2017-07-22T02:57:49.329Z,1005.66
2017-07-22T02:58:49.316Z,1005.65
2017-07-22T02:59:49.303Z,1005.66
2017-07-22T03:00:49.286Z,1005.65
2017-07-22T03:01:49.270Z,1005.65
2017-07-22T03:02:49.260Z,1005.61
2017-07-22T03:03:49.238Z,1005.59
2017-07-22T03:04:49.229Z,1005.62
2017-07-22T03:05:49.218Z,1005.6
2017-07-22T03:06:49.208Z,1005.54
2017-07-22T03:07:49.182Z,1005.58
2017-07-22T03:08:49.213Z,1005.5
2017-07-22T03:09:49.158Z,1005.55
2017-07-22T03:10:49.138Z,1005.52
2017-07-22T03:11:49.123Z,1005.53
2017-07-22T03:12:49.114Z,1005.56
2017-07-22T03:13:49.094Z,1005.55
2017-07-22T03:14:49.086Z,1005.55
2017-07-22T03:15:49.062Z,1005.59
2017-07-22T03:16:49.077Z,1005.58
2017-07-22T03:17:49.036Z,1005.59
2017-07-22T03:18:49.020Z,1005.58
2017-07-22T03:19:49.006Z,1005.56
2017-07-22T03:20:48.993Z,1005.61
2017-07-22T03:21:48.979Z,1005.63
2017-07-22T03:22:48.960Z,1005.62
2017-07-22T03:23:48.956Z,1005.63
2017-07-22T03:24:48.937Z,1005.64
2017-07-22T03:25:48.913Z,1005.65
2017-07-22T03:26:48.899Z,1005.63
2017-07-22T03:27:48.887Z,1005.69
2017-07-22T03:28:48.876Z,1005.73
2017-07-22T03:29:48.855Z,1005.67
2017-07-22T03:30:48.842Z,1005.72
2017-07-22T03:31:48.825Z,1005.71
2017-07-22T03:32:48.812Z,1005.74
2017-07-22T03:33:48.795Z,1005.74
2017-07-22T03:34:48.779Z,1005.76
2017-07-22T03:35:48.767Z,1005.73
2017-07-22T03:36:48.748Z,1005.73
2017-07-22T03:37:48.735Z,1005.76
2017-07-22T03:38:48.726Z,1005.76
2017-07-22T03:39:48.705Z,1005.73
2017-07-22T03:40:48.687Z,1005.74
2017-07-22T03:41:48.676Z,1005.71
2017-07-22T03:42:48.662Z,1005.71
2017-07-22T03:43:48.642Z,1005.72
2017-07-22T03:44:48.628Z,1005.71
2017-07-22T03:45:48.619Z,1005.68
2017-07-22T03:46:48.600Z,1005.76
2017-07-22T03:47:48.583Z,1005.76
2017-07-22T03:48:48.566Z,1005.79
2017-07-22T03:49:48.557Z,1005.76
2017-07-22T03:50:48.536Z,1005.77
2017-07-22T03:51:48.528Z,1005.75
2017-07-22T03:52:48.508Z,1005.76
2017-07-22T03:53:48.496Z,1005.77
2017-07-22T03:54:48.488Z,1005.74
2017-07-22T03:55:48.466Z,1005.73
2017-07-22T03:56:48.447Z,1005.72
2017-07-22T03:57:48.428Z,1005.73
2017-07-22T03:58:48.415Z,1005.69
2017-07-22T03:59:48.403Z,1005.68
2017-07-22T04:00:48.388Z,1005.68
2017-07-22T04:01:48.369Z,1005.67
2017-07-22T04:02:48.351Z,1005.63
2017-07-22T04:03:48.338Z,1005.62
2017-07-22T04:04:48.327Z,1005.59
2017-07-22T04:05:48.308Z,1005.57
2017-07-22T04:06:48.292Z,1005.57
2017-07-22T04:07:48.278Z,1005.52
2017-07-22T04:08:48.267Z,1005.56
2017-07-22T04:09:48.250Z,1005.59
2017-07-22T04:10:48.236Z,1005.57
2017-07-22T04:11:48.223Z,1005.54
2017-07-22T04:12:48.204Z,1005.58
2017-07-22T04:13:48.189Z,1005.57
2017-07-22T04:14:48.178Z,1005.57
2017-07-22T04:15:48.159Z,1005.59
2017-07-22T04:16:48.153Z,1005.57
2017-07-22T04:17:48.128Z,1005.57
2017-07-22T04:18:48.118Z,1005.57
2017-07-22T04:19:48.099Z,1005.59
2017-07-22T04:20:48.091Z,1005.62
2017-07-22T04:21:48.074Z,1005.61
2017-07-22T04:22:48.059Z,1005.64
2017-07-22T04:23:48.039Z,1005.68
2017-07-22T04:24:48.029Z,1005.65
2017-07-22T04:25:48.010Z,1005.66
2017-07-22T04:26:48.006Z,1005.61
2017-07-22T04:27:47.981Z,1005.61
2017-07-22T04:28:47.965Z,1005.57
2017-07-22T04:29:47.951Z,1005.54
2017-07-22T04:30:47.935Z,1005.53
2017-07-22T04:31:47.919Z,1005.51
2017-07-22T04:32:47.909Z,1005.51
2017-07-22T04:33:47.896Z,1005.5
2017-07-22T04:34:47.880Z,1005.47
2017-07-22T04:35:47.869Z,1005.5
2017-07-22T04:36:47.846Z,1005.5
2017-07-22T04:37:47.829Z,1005.5
2017-07-22T04:38:47.818Z,1005.5
2017-07-22T04:39:47.808Z,1005.51
2017-07-22T04:40:47.790Z,1005.55
2017-07-22T04:41:47.778Z,1005.54
2017-07-22T04:42:47.760Z,1005.49
2017-07-22T04:43:47.745Z,1005.51
2017-07-22T04:44:47.728Z,1005.49
2017-07-22T04:45:47.709Z,1005.48
2017-07-22T04:46:47.698Z,1005.44
2017-07-22T04:47:47.681Z,1005.49
2017-07-22T04:48:47.669Z,1005.45
2017-07-22T04:49:47.650Z,1005.48
2017-07-22T04:50:47.641Z,1005.46
2017-07-22T04:51:47.629Z,1005.45
2017-07-22T04:52:47.609Z,1005.42
2017-07-22T04:53:47.609Z,1005.42
2017-07-22T04:54:47.579Z,1005.39
2017-07-22T04:55:47.569Z,1005.39
2017-07-22T04:56:47.551Z,1005.36
2017-07-22T04:57:47.538Z,1005.35
2017-07-22T04:58:47.518Z,1005.34
2017-07-22T04:59:47.509Z,1005.31
2017-07-22T05:00:47.493Z,1005.28
2017-07-22T05:01:47.480Z,1005.26
2017-07-22T05:02:47.465Z,1005.22
2017-07-22T05:03:47.450Z,1005.26
2017-07-22T05:04:47.432Z,1005.24
2017-07-22T05:05:47.419Z,1005.26
2017-07-22T05:06:47.409Z,1005.23
2017-07-22T05:07:47.392Z,1005.26
2017-07-22T05:08:47.378Z,1005.2
2017-07-22T05:09:47.369Z,1005.19
2017-07-22T05:10:47.349Z,1005.19
2017-07-22T05:11:47.334Z,1005.18
2017-07-22T05:12:47.317Z,1005.17
2017-07-22T05:13:47.308Z,1005.15
2017-07-22T05:14:47.289Z,1005.14
2017-07-22T05:15:47.276Z,1005.12
2017-07-22T05:16:47.268Z,1005.13
2017-07-22T05:17:47.254Z,1005.11
2017-07-22T05:18:47.236Z,1005.12
2017-07-22T05:19:47.222Z,1005.12
2017-07-22T05:20:47.210Z,1005.09
2017-07-22T05:21:47.190Z,1005.09
2017-07-22T05:22:47.182Z,1005.07
2017-07-22T05:23:47.172Z,1005.05
2017-07-22T05:24:47.151Z,1005.05
2017-07-22T05:25:47.139Z,1005.07
2017-07-22T05:26:47.121Z,1005.06
2017-07-22T05:27:47.110Z,1005.05
2017-07-22T05:28:47.089Z,1005.05
2017-07-22T05:29:47.079Z,1005.08
2017-07-22T05:30:47.069Z,1005.08
2017-07-22T05:31:47.049Z,1005.07
2017-07-22T05:32:47.032Z,1005.07
2017-07-22T05:33:47.020Z,1005.1
2017-07-22T05:34:47.011Z,1005.09
2017-07-22T05:35:46.989Z,1005.07
2017-07-22T05:36:46.976Z,1005.11
2017-07-22T05:37:46.960Z,1005.12
2017-07-22T05:38:46.949Z,1005.13
2017-07-22T05:39:46.936Z,1005.15
2017-07-22T05:40:46.919Z,1005.16
2017-07-22T05:41:46.910Z,1005.14
2017-07-22T05:42:46.890Z,1005.13
2017-07-22T05:43:46.879Z,1005.16
2017-07-22T05:44:46.858Z,1005.15
2017-07-22T05:45:46.850Z,1005.13
2017-07-22T05:46:46.840Z,1005.15
2017-07-22T05:47:46.819Z,1005.11
2017-07-22T05:48:46.804Z,1005.12
2017-07-22T05:49:46.798Z,1005.11
2017-07-22T05:50:46.775Z,1005.1
2017-07-22T05:51:46.771Z,1005.13
2017-07-22T05:52:46.768Z,1005.12
2017-07-22T05:53:46.739Z,1005.13
2017-07-22T05:54:46.720Z,1005.13
2017-07-22T05:55:46.706Z,1005.14
2017-07-22T05:56:46.694Z,1005.14
2017-07-22T05:57:46.679Z,1005.15
2017-07-22T05:58:46.682Z,1005.17
2017-07-22T05:59:46.652Z,1005.18
2017-07-22T06:00:46.638Z,1005.16
2017-07-22T06:01:46.631Z,1005.15
2017-07-22T06:02:46.613Z,1005.16
2017-07-22T06:03:46.599Z,1005.16
2017-07-22T06:04:46.589Z,1005.16
2017-07-22T06:05:46.569Z,1005.14
2017-07-22T06:06:46.558Z,1005.15
2017-07-22T06:07:46.542Z,1005.14
2017-07-22T06:08:46.530Z,1005.16
2017-07-22T06:09:46.521Z,1005.14
2017-07-22T06:10:46.502Z,1005.17
2017-07-22T06:11:46.486Z,1005.16
2017-07-22T06:12:46.474Z,1005.18
2017-07-22T06:13:46.460Z,1005.19
2017-07-22T06:14:46.448Z,1005.15
2017-07-22T06:15:46.433Z,1005.16
2017-07-22T06:16:46.424Z,1005.14
2017-07-22T06:17:46.409Z,1005.15
2017-07-22T06:18:46.393Z,1005.18
2017-07-22T06:19:46.382Z,1005.18
2017-07-22T06:20:46.371Z,1005.2
2017-07-22T06:21:46.365Z,1005.2
2017-07-22T06:22:46.338Z,1005.25
2017-07-22T06:23:46.326Z,1005.21
2017-07-22T06:24:46.310Z,1005.25
2017-07-22T06:25:46.302Z,1005.26
2017-07-22T06:26:46.285Z,1005.27
2017-07-22T06:27:46.270Z,1005.27
2017-07-22T06:28:46.264Z,1005.28
2017-07-22T06:29:46.247Z,1005.27
2017-07-22T06:30:46.230Z,1005.3
2017-07-22T06:31:46.219Z,1005.29
2017-07-22T06:32:46.205Z,1005.32
2017-07-22T06:33:46.191Z,1005.3
2017-07-22T06:34:46.180Z,1005.35
2017-07-22T06:35:46.164Z,1005.33
2017-07-22T06:36:46.151Z,1005.36
2017-07-22T06:37:46.140Z,1005.39
2017-07-22T06:38:46.128Z,1005.42
2017-07-22T06:39:46.110Z,1005.37
2017-07-22T06:40:46.096Z,1005.35
2017-07-22T06:41:46.088Z,1005.36
2017-07-22T06:42:46.072Z,1005.35
2017-07-22T06:43:46.057Z,1005.34
2017-07-22T06:44:46.050Z,1005.37
2017-07-22T06:45:46.030Z,1005.34
2017-07-22T06:46:46.022Z,1005.35
2017-07-22T06:47:46.004Z,1005.37
2017-07-22T06:48:45.997Z,1005.43
2017-07-22T06:49:45.980Z,1005.46
2017-07-22T06:50:45.961Z,1005.47
2017-07-22T06:51:45.948Z,1005.51
2017-07-22T06:52:45.941Z,1005.5
2017-07-22T06:53:45.922Z,1005.52
2017-07-22T06:54:45.910Z,1005.5
2017-07-22T06:55:45.901Z,1005.52
2017-07-22T06:56:45.882Z,1005.52
2017-07-22T06:57:45.870Z,1005.55
2017-07-22T06:58:45.857Z,1005.54
2017-07-22T06:59:45.840Z,1005.53
2017-07-22T07:00:45.831Z,1005.55
2017-07-22T07:01:45.814Z,1005.56
2017-07-22T07:02:45.800Z,1005.48
2017-07-22T07:03:45.789Z,1005.51
2017-07-22T07:04:45.778Z,1005.49
2017-07-22T07:05:45.762Z,1005.5
2017-07-22T07:06:45.755Z,1005.57
2017-07-22T07:07:45.734Z,1005.51
2017-07-22T07:08:45.721Z,1005.52
2017-07-22T07:09:45.707Z,1005.55
2017-07-22T07:10:45.699Z,1005.54
2017-07-22T07:11:45.682Z,1005.52
2017-07-22T07:12:45.669Z,1005.56
2017-07-22T07:13:45.659Z,1005.59
2017-07-22T07:14:45.645Z,1005.6
2017-07-22T07:15:45.630Z,1005.62
2017-07-22T07:16:45.620Z,1005.62
2017-07-22T07:17:45.607Z,1005.66
2017-07-22T07:18:45.598Z,1005.65
2017-07-22T07:19:45.582Z,1005.62
2017-07-22T07:20:45.567Z,1005.66
2017-07-22T07:21:45.602Z,1005.64
2017-07-22T07:22:45.555Z,1005.66
2017-07-22T07:23:45.538Z,1005.67
2017-07-22T07:24:45.512Z,1005.68
2017-07-22T07:25:45.514Z,1005.72
2017-07-22T07:26:45.489Z,1005.77
2017-07-22T07:27:45.489Z,1005.76
2017-07-22T07:28:45.471Z,1005.73
2017-07-22T07:29:45.452Z,1005.71
2017-07-22T07:30:45.442Z,1005.71
2017-07-22T07:31:45.474Z,1005.72
2017-07-22T07:32:45.410Z,1005.75
2017-07-22T07:33:45.410Z,1005.8
2017-07-22T07:34:45.389Z,1005.76
2017-07-22T07:35:45.414Z,1005.76
2017-07-22T07:36:45.359Z,1005.71
2017-07-22T07:37:45.363Z,1005.69
2017-07-22T07:38:45.333Z,1005.69
2017-07-22T07:39:45.330Z,1005.68
2017-07-22T07:40:45.311Z,1005.67
2017-07-22T07:41:45.305Z,1005.66
2017-07-22T07:42:45.278Z,1005.65
2017-07-22T07:43:45.271Z,1005.65
2017-07-22T07:44:45.259Z,1005.66
2017-07-22T07:45:45.301Z,1005.64
2017-07-22T07:46:45.231Z,1005.63
2017-07-22T07:47:45.221Z,1005.63
2017-07-22T07:48:45.208Z,1005.63
2017-07-22T07:49:45.193Z,1005.57
2017-07-22T07:50:45.180Z,1005.52
2017-07-22T07:51:45.168Z,1005.52
2017-07-22T07:52:45.160Z,1005.47
2017-07-22T07:53:45.146Z,1005.44
2017-07-22T07:54:45.135Z,1005.5
2017-07-22T07:55:45.125Z,1005.52
2017-07-22T07:56:45.110Z,1005.52
2017-07-22T07:57:45.093Z,1005.56
2017-07-22T07:58:45.080Z,1005.59
2017-07-22T07:59:45.070Z,1005.6
2017-07-22T08:00:45.061Z,1005.66
2017-07-22T08:01:45.055Z,1005.69
2017-07-22T08:02:45.043Z,1005.68
2017-07-22T08:03:45.023Z,1005.71
2017-07-22T08:04:45.011Z,1005.7
2017-07-22T08:05:45.002Z,1005.73
2017-07-22T08:06:44.987Z,1005.71
2017-07-22T08:07:44.982Z,1005.71
2017-07-22T08:08:44.964Z,1005.74
2017-07-22T08:09:44.953Z,1005.79
2017-07-22T08:10:44.939Z,1005.81
2017-07-22T08:11:44.930Z,1005.83
2017-07-22T08:12:44.920Z,1005.86
2017-07-22T08:13:44.908Z,1005.86
2017-07-22T08:14:44.895Z,1005.91
2017-07-22T08:15:44.892Z,1005.93
2017-07-22T08:16:44.870Z,1005.93
2017-07-22T08:17:44.860Z,1005.95
2017-07-22T08:18:44.848Z,1005.96
2017-07-22T08:19:44.840Z,1005.98
2017-07-22T08:20:44.833Z,1005.98
2017-07-22T08:21:44.810Z,1005.95
2017-07-22T08:22:44.800Z,1005.96
2017-07-22T08:23:44.791Z,1005.91
2017-07-22T08:24:44.794Z,1005.96
2017-07-22T08:25:44.767Z,1006
2017-07-22T08:26:44.760Z,1005.93
2017-07-22T08:27:44.750Z,1006.02
2017-07-22T08:28:44.743Z,1006.02
2017-07-22T08:29:44.733Z,1006.06
2017-07-22T08:30:44.719Z,1006.13
2017-07-22T08:31:44.703Z,1006.21
2017-07-22T08:32:44.701Z,1006.27
2017-07-22T08:33:44.686Z,1006.36
2017-07-22T08:34:44.671Z,1006.32
2017-07-22T08:35:44.660Z,1006.39
2017-07-22T08:36:44.651Z,1006.34
2017-07-22T08:37:44.642Z,1006.35
2017-07-22T08:38:44.632Z,1006.35
2017-07-22T08:39:44.618Z,1006.16
2017-07-22T08:40:44.610Z,1005.97
2017-07-22T08:41:44.606Z,1005.92
2017-07-22T08:42:44.590Z,1006.27
2017-07-22T08:43:44.579Z,1005.96
2017-07-22T08:44:44.571Z,1006.05
2017-07-22T08:45:44.574Z,1006.21
2017-07-22T08:46:44.551Z,1006.2
2017-07-22T08:47:44.544Z,1006.29
2017-07-22T08:48:44.551Z,1006.26
2017-07-22T08:49:44.524Z,1006.22
2017-07-22T08:50:44.513Z,1006.21
2017-07-22T08:51:44.506Z,1006.22
2017-07-22T08:52:44.511Z,1006.2
2017-07-22T08:53:44.489Z,1006.19
2017-07-22T08:54:44.480Z,1005.97
2017-07-22T08:55:44.476Z,1005.99
2017-07-22T08:56:44.474Z,1006.32
2017-07-22T08:57:44.458Z,1006.4
2017-07-22T08:58:44.458Z,1006.42
2017-07-22T08:59:44.444Z,1006.43
2017-07-22T09:00:44.444Z,1006.35
2017-07-22T09:01:44.430Z,1006.19
2017-07-22T09:02:44.429Z,1006.12
2017-07-22T09:03:44.428Z,1006.27
2017-07-22T09:04:44.409Z,1006.47
2017-07-22T09:05:44.401Z,1006.37
2017-07-22T09:06:44.398Z,1006.36
2017-07-22T09:07:44.393Z,1006.45
2017-07-22T09:08:44.385Z,1006.44
2017-07-22T09:09:44.379Z,1006.08
2017-07-22T09:10:44.372Z,1006.39
2017-07-22T09:11:44.371Z,1006.38
2017-07-22T09:12:44.366Z,1006.26
2017-07-22T09:13:44.358Z,1006.3
2017-07-22T09:14:44.350Z,1006.28
2017-07-22T09:15:44.348Z,1006.33
2017-07-22T09:16:44.340Z,1006.25
2017-07-22T09:17:44.340Z,1006.27
2017-07-22T09:18:44.339Z,1006.07
2017-07-22T09:19:44.330Z,1006.09
2017-07-22T09:20:44.332Z,1006.15
2017-07-22T09:21:44.319Z,1006.2
2017-07-22T09:22:44.321Z,1006.11
2017-07-22T09:23:44.323Z,1006.21
2017-07-22T09:24:44.321Z,1006.24
2017-07-22T09:25:44.300Z,1006.21
2017-07-22T09:26:44.297Z,1006.23
2017-07-22T09:27:44.292Z,1006.16
2017-07-22T09:28:44.288Z,1006.17
2017-07-22T09:29:44.296Z,1006.16
2017-07-22T09:30:44.286Z,1006.19
2017-07-22T09:31:44.279Z,1006.18
2017-07-22T09:32:44.274Z,1006.14
2017-07-22T09:33:44.270Z,1006.12
2017-07-22T09:34:44.268Z,1006.17
2017-07-22T09:35:44.266Z,1006.12
2017-07-22T09:36:44.269Z,1006.11
2017-07-22T09:37:44.261Z,1006.18
2017-07-22T09:38:44.259Z,1006.13
2017-07-22T09:39:44.256Z,1006.11
2017-07-22T09:40:44.266Z,1006.09
2017-07-22T09:41:44.250Z,1006.08
2017-07-22T09:42:44.250Z,1006.17
2017-07-22T09:43:44.250Z,1006.15
2017-07-22T09:44:44.245Z,1006.11
2017-07-22T09:45:44.245Z,1006.11
2017-07-22T09:46:44.239Z,1006.15
2017-07-22T09:47:44.238Z,1006.12
2017-07-22T09:48:44.238Z,1006.09
2017-07-22T09:49:44.240Z,1006.18
2017-07-22T09:50:44.229Z,1006.14
2017-07-22T09:51:44.228Z,1006.16
2017-07-22T09:52:44.227Z,1006.14
2017-07-22T09:53:44.226Z,1006.15
2017-07-22T09:54:44.223Z,1006.12
2017-07-22T09:55:44.220Z,1006.1
2017-07-22T09:56:44.218Z,1006.15
2017-07-22T09:57:44.218Z,1006.12
2017-07-22T09:58:44.218Z,1006.12
2017-07-22T09:59:44.225Z,1006.09
2017-07-22T10:00:44.208Z,1006.11
2017-07-22T10:01:44.209Z,1006.11
2017-07-22T10:02:44.208Z,1006.09
2017-07-22T10:03:44.212Z,1006.08
2017-07-22T10:04:44.196Z,1006.07
2017-07-22T10:05:44.198Z,1006.03
2017-07-22T10:06:44.195Z,1006.07
2017-07-22T10:07:44.186Z,1006.09
2017-07-22T10:08:44.193Z,1006.04
2017-07-22T10:09:44.191Z,1006.02
2017-07-22T10:10:44.179Z,1005.96
2017-07-22T10:11:44.178Z,1005.95
2017-07-22T10:12:44.177Z,1005.93
2017-07-22T10:13:44.178Z,1005.95
2017-07-22T10:14:44.169Z,1005.89
2017-07-22T10:15:44.170Z,1005.93
2017-07-22T10:16:44.169Z,1005.85
2017-07-22T10:17:44.169Z,1005.85
2017-07-22T10:18:44.168Z,1005.94
2017-07-22T10:19:44.168Z,1005.91
2017-07-22T10:20:44.160Z,1005.91
2017-07-22T10:21:44.160Z,1005.91
2017-07-22T10:22:44.148Z,1005.98
2017-07-22T10:23:44.151Z,1005.96
2017-07-22T10:24:44.144Z,1005.98
2017-07-22T10:25:44.139Z,1005.91
2017-07-22T10:26:44.140Z,1005.87
2017-07-22T10:27:44.134Z,1005.91
2017-07-22T10:28:44.129Z,1005.87
2017-07-22T10:29:44.128Z,1005.88
2017-07-22T10:30:44.125Z,1005.96
2017-07-22T10:31:44.121Z,1005.95
2017-07-22T10:32:44.111Z,1005.98
2017-07-22T10:33:44.115Z,1006
2017-07-22T10:34:44.103Z,1005.97
2017-07-22T10:35:44.099Z,1005.98
2017-07-22T10:36:44.099Z,1005.96
2017-07-22T10:37:44.090Z,1005.96
2017-07-22T10:38:44.087Z,1005.95
2017-07-22T10:39:44.081Z,1005.95
2017-07-22T10:40:44.079Z,1005.91
2017-07-22T10:41:44.077Z,1005.92
2017-07-22T10:42:44.069Z,1005.92
2017-07-22T10:43:44.059Z,1005.97
2017-07-22T10:44:44.062Z,1005.98
2017-07-22T10:45:44.054Z,1006
2017-07-22T10:46:44.048Z,1005.97
2017-07-22T10:47:44.038Z,1006.02
2017-07-22T10:48:44.034Z,1005.98
2017-07-22T10:49:44.028Z,1005.96
2017-07-22T10:50:44.020Z,1005.98
2017-07-22T10:51:44.027Z,1005.9
2017-07-22T10:52:44.014Z,1005.95
2017-07-22T10:53:44.010Z,1005.92
2017-07-22T10:54:44.009Z,1005.89
2017-07-22T10:55:43.996Z,1005.92
2017-07-22T10:56:43.989Z,1005.85
2017-07-22T10:57:43.978Z,1005.84
2017-07-22T10:58:43.969Z,1005.85
2017-07-22T10:59:43.969Z,1005.92
2017-07-22T11:00:43.960Z,1005.84
2017-07-22T11:01:43.955Z,1005.83
2017-07-22T11:02:43.946Z,1005.84
2017-07-22T11:03:43.939Z,1005.86
2017-07-22T11:04:43.940Z,1005.82
2017-07-22T11:05:43.926Z,1005.82
2017-07-22T11:06:43.922Z,1005.88
2017-07-22T11:07:43.917Z,1005.92
2017-07-22T11:08:43.910Z,1005.9
2017-07-22T11:09:43.898Z,1005.85
2017-07-22T11:10:43.899Z,1005.86
2017-07-22T11:11:43.889Z,1005.9
2017-07-22T11:12:43.879Z,1005.89
2017-07-22T11:13:43.877Z,1005.9
2017-07-22T11:14:43.867Z,1005.91
2017-07-22T11:15:43.857Z,1005.9
2017-07-22T11:16:43.857Z,1005.89
2017-07-22T11:17:43.848Z,1005.85
2017-07-22T11:18:43.838Z,1005.84
2017-07-22T11:19:43.832Z,1005.85
2017-07-22T11:20:43.828Z,1005.75
2017-07-22T11:21:43.822Z,1005.81
2017-07-22T11:22:43.814Z,1005.8
2017-07-22T11:23:43.810Z,1005.75
2017-07-22T11:24:43.811Z,1005.78
2017-07-22T11:25:43.798Z,1005.81
2017-07-22T11:26:43.789Z,1005.79
2017-07-22T11:27:43.783Z,1005.77
2017-07-22T11:28:43.776Z,1005.78
2017-07-22T11:29:43.829Z,1005.81
2017-07-22T11:30:43.757Z,1005.84
2017-07-22T11:31:43.757Z,1005.82
2017-07-22T11:32:43.743Z,1005.81
2017-07-22T11:33:43.787Z,1005.75
2017-07-22T11:34:43.736Z,1005.74
2017-07-22T11:35:43.725Z,1005.74
2017-07-22T11:36:43.717Z,1005.7
2017-07-22T11:37:43.715Z,1005.65
2017-07-22T11:38:43.709Z,1005.63
2017-07-22T11:39:43.699Z,1005.63
2017-07-22T11:40:43.709Z,1005.64
2017-07-22T11:41:43.686Z,1005.58
2017-07-22T11:42:43.676Z,1005.59
2017-07-22T11:43:43.680Z,1005.59
2017-07-22T11:44:43.665Z,1005.6
2017-07-22T11:45:43.668Z,1005.61
2017-07-22T11:46:43.648Z,1005.65
2017-07-22T11:47:43.648Z,1005.6
2017-07-22T11:48:43.636Z,1005.62
2017-07-22T11:49:43.636Z,1005.65
2017-07-22T11:50:43.626Z,1005.59
2017-07-22T11:51:43.618Z,1005.68
2017-07-22T11:52:43.618Z,1005.67
2017-07-22T11:53:43.607Z,1005.69
2017-07-22T11:54:43.597Z,1005.71
2017-07-22T11:55:43.593Z,1005.72
2017-07-22T11:56:43.582Z,1005.75
2017-07-22T11:57:43.580Z,1005.74
2017-07-22T11:58:43.571Z,1005.66
2017-07-22T11:59:43.567Z,1005.69
2017-07-22T12:00:43.563Z,1005.7
2017-07-22T12:01:43.557Z,1005.69
2017-07-22T12:02:43.576Z,1005.66
2017-07-22T12:03:43.570Z,1005.65
2017-07-22T12:04:43.538Z,1005.65
2017-07-22T12:05:43.537Z,1005.69
2017-07-22T12:06:43.527Z,1005.67
2017-07-22T12:07:43.519Z,1005.69